sensor_id;sensor_type;location;lat;lon;timestamp;P1;durP1;ratioP1;P2;durP2;ratioP2
12224;SDS011;6175;50.956;11.064;2023-06-01T00:00:55;2.70;;;2.50;;
12224;SDS011;6175;50.956;11.064;2023-06-01T00:03:23;2.30;;;2.10;;
12224;SDS011;6175;50.956;11.064;2023-06-01T00:05:51;2.40;;;2.20;;
12224;SDS011;6175;50.956;11.064;2023-06-01T00:08:18;2.60;;;2.03;;
12224;SDS011;6175;50.956;11.064;2023-06-01T00:10:47;3.55;;;2.08;;
12224;SDS011;6175;50.956;11.064;2023-06-01T00:13:14;3.10;;;2.40;;
12224;SDS011;6175;50.956;11.064;2023-06-01T00:15:43;2.47;;;2.10;;
12224;SDS011;6175;50.956;11.064;2023-06-01T00:18:10;2.58;;;2.15;;
12224;SDS011;6175;50.956;11.064;2023-06-01T00:20:40;2.60;;;2.20;;
12224;SDS011;6175;50.956;11.064;2023-06-01T00:23:07;3.15;;;2.38;;
12224;SDS011;6175;50.956;11.064;2023-06-01T00:25:35;3.05;;;2.58;;
12224;SDS011;6175;50.956;11.064;2023-06-01T00:28:02;2.72;;;2.53;;
12224;SDS011;6175;50.956;11.064;2023-06-01T00:30:29;3.42;;;2.53;;
12224;SDS011;6175;50.956;11.064;2023-06-01T00:32:57;3.83;;;2.75;;
12224;SDS011;6175;50.956;11.064;2023-06-01T00:35:25;3.40;;;2.75;;
12224;SDS011;6175;50.956;11.064;2023-06-01T00:37:52;3.42;;;2.80;;
12224;SDS011;6175;50.956;11.064;2023-06-01T00:40:19;4.07;;;2.53;;
12224;SDS011;6175;50.956;11.064;2023-06-01T00:42:46;3.63;;;2.58;;
12224;SDS011;6175;50.956;11.064;2023-06-01T00:45:13;3.38;;;2.63;;
12224;SDS011;6175;50.956;11.064;2023-06-01T00:47:41;3.63;;;2.42;;
12224;SDS011;6175;50.956;11.064;2023-06-01T00:50:11;3.15;;;2.58;;
12224;SDS011;6175;50.956;11.064;2023-06-01T00:52:38;2.55;;;2.35;;
12224;SDS011;6175;50.956;11.064;2023-06-01T00:55:07;3.35;;;2.20;;
12224;SDS011;6175;50.956;11.064;2023-06-01T00:57:34;2.60;;;2.40;;
12224;SDS011;6175;50.956;11.064;2023-06-01T01:00:01;4.53;;;2.67;;
12224;SDS011;6175;50.956;11.064;2023-06-01T01:02:34;3.47;;;2.58;;
12224;SDS011;6175;50.956;11.064;2023-06-01T01:05:03;2.85;;;2.38;;
12224;SDS011;6175;50.956;11.064;2023-06-01T01:07:38;3.75;;;2.70;;
12224;SDS011;6175;50.956;11.064;2023-06-01T01:10:13;2.65;;;2.38;;
12224;SDS011;6175;50.956;11.064;2023-06-01T01:12:49;2.65;;;2.42;;
12224;SDS011;6175;50.956;11.064;2023-06-01T01:15:19;3.83;;;2.70;;
12224;SDS011;6175;50.956;11.064;2023-06-01T01:17:54;4.55;;;2.50;;
12224;SDS011;6175;50.956;11.064;2023-06-01T01:20:26;4.82;;;3.15;;
12224;SDS011;6175;50.956;11.064;2023-06-01T01:23:01;2.88;;;2.50;;
12224;SDS011;6175;50.956;11.064;2023-06-01T01:25:51;3.42;;;2.75;;
12224;SDS011;6175;50.956;11.064;2023-06-01T01:31:05;5.53;;;3.13;;
12224;SDS011;6175;50.956;11.064;2023-06-01T01:33:35;4.82;;;2.97;;
12224;SDS011;6175;50.956;11.064;2023-06-01T01:36:02;5.13;;;2.67;;
12224;SDS011;6175;50.956;11.064;2023-06-01T01:38:33;3.72;;;2.70;;
12224;SDS011;6175;50.956;11.064;2023-06-01T01:41:01;2.70;;;2.33;;
12224;SDS011;6175;50.956;11.064;2023-06-01T01:43:28;3.25;;;2.50;;
12224;SDS011;6175;50.956;11.064;2023-06-01T01:45:57;2.50;;;2.30;;
12224;SDS011;6175;50.956;11.064;2023-06-01T01:48:31;3.90;;;3.00;;
12224;SDS011;6175;50.956;11.064;2023-06-01T01:51:02;3.08;;;2.65;;
12224;SDS011;6175;50.956;11.064;2023-06-01T01:53:34;3.40;;;2.90;;
12224;SDS011;6175;50.956;11.064;2023-06-01T01:56:02;3.00;;;2.58;;
12224;SDS011;6175;50.956;11.064;2023-06-01T01:58:30;3.03;;;2.65;;
12224;SDS011;6175;50.956;11.064;2023-06-01T02:00:57;3.15;;;2.60;;
12224;SDS011;6175;50.956;11.064;2023-06-01T02:03:24;3.35;;;2.85;;
12224;SDS011;6175;50.956;11.064;2023-06-01T02:05:53;3.95;;;2.70;;
12224;SDS011;6175;50.956;11.064;2023-06-01T02:08:20;4.15;;;2.80;;
12224;SDS011;6175;50.956;11.064;2023-06-01T02:10:47;4.72;;;2.95;;
12224;SDS011;6175;50.956;11.064;2023-06-01T02:13:14;4.32;;;2.70;;
12224;SDS011;6175;50.956;11.064;2023-06-01T02:15:41;5.70;;;3.15;;
12224;SDS011;6175;50.956;11.064;2023-06-01T02:18:09;5.30;;;2.90;;
12224;SDS011;6175;50.956;11.064;2023-06-01T02:20:36;3.50;;;2.53;;
12224;SDS011;6175;50.956;11.064;2023-06-01T02:23:04;3.60;;;3.03;;
12224;SDS011;6175;50.956;11.064;2023-06-01T02:25:31;3.15;;;2.78;;
12224;SDS011;6175;50.956;11.064;2023-06-01T02:27:59;3.17;;;2.88;;
12224;SDS011;6175;50.956;11.064;2023-06-01T02:30:26;4.20;;;2.70;;
12224;SDS011;6175;50.956;11.064;2023-06-01T02:32:53;2.85;;;2.60;;
12224;SDS011;6175;50.956;11.064;2023-06-01T02:35:20;3.72;;;2.67;;
12224;SDS011;6175;50.956;11.064;2023-06-01T02:37:48;2.95;;;2.63;;
12224;SDS011;6175;50.956;11.064;2023-06-01T02:40:16;3.15;;;2.58;;
12224;SDS011;6175;50.956;11.064;2023-06-01T02:42:43;2.90;;;2.60;;
12224;SDS011;6175;50.956;11.064;2023-06-01T02:45:10;3.00;;;2.30;;
12224;SDS011;6175;50.956;11.064;2023-06-01T02:47:37;2.72;;;2.38;;
12224;SDS011;6175;50.956;11.064;2023-06-01T02:50:05;4.55;;;2.83;;
12224;SDS011;6175;50.956;11.064;2023-06-01T02:52:32;2.92;;;2.60;;
12224;SDS011;6175;50.956;11.064;2023-06-01T02:55:00;3.40;;;2.75;;
12224;SDS011;6175;50.956;11.064;2023-06-01T02:57:28;4.53;;;2.83;;
12224;SDS011;6175;50.956;11.064;2023-06-01T02:59:55;4.38;;;2.70;;
12224;SDS011;6175;50.956;11.064;2023-06-01T03:02:22;3.63;;;2.58;;
12224;SDS011;6175;50.956;11.064;2023-06-01T03:04:51;2.88;;;2.50;;
12224;SDS011;6175;50.956;11.064;2023-06-01T03:07:18;3.13;;;2.17;;
12224;SDS011;6175;50.956;11.064;2023-06-01T03:09:45;3.70;;;2.50;;
12224;SDS011;6175;50.956;11.064;2023-06-01T03:12:12;3.45;;;2.03;;
12224;SDS011;6175;50.956;11.064;2023-06-01T03:14:41;5.00;;;2.88;;
12224;SDS011;6175;50.956;11.064;2023-06-01T03:17:08;3.13;;;2.38;;
12224;SDS011;6175;50.956;11.064;2023-06-01T03:19:35;2.80;;;2.25;;
12224;SDS011;6175;50.956;11.064;2023-06-01T03:22:02;2.50;;;2.30;;
12224;SDS011;6175;50.956;11.064;2023-06-01T03:24:29;3.25;;;2.42;;
12224;SDS011;6175;50.956;11.064;2023-06-01T03:26:57;5.13;;;3.35;;
12224;SDS011;6175;50.956;11.064;2023-06-01T03:29:24;5.55;;;3.38;;
12224;SDS011;6175;50.956;11.064;2023-06-01T03:31:53;7.68;;;3.28;;
12224;SDS011;6175;50.956;11.064;2023-06-01T03:34:20;3.40;;;2.55;;
12224;SDS011;6175;50.956;11.064;2023-06-01T03:36:47;3.58;;;2.80;;
12224;SDS011;6175;50.956;11.064;2023-06-01T03:39:15;3.97;;;2.40;;
12224;SDS011;6175;50.956;11.064;2023-06-01T03:41:42;4.18;;;2.95;;
12224;SDS011;6175;50.956;11.064;2023-06-01T03:44:09;3.35;;;2.83;;
12224;SDS011;6175;50.956;11.064;2023-06-01T03:46:37;4.15;;;2.70;;
12224;SDS011;6175;50.956;11.064;2023-06-01T03:49:06;3.25;;;2.63;;
12224;SDS011;6175;50.956;11.064;2023-06-01T03:51:33;3.22;;;2.60;;
12224;SDS011;6175;50.956;11.064;2023-06-01T03:54:01;3.63;;;2.65;;
12224;SDS011;6175;50.956;11.064;2023-06-01T03:56:28;2.50;;;2.22;;
12224;SDS011;6175;50.956;11.064;2023-06-01T03:58:55;3.35;;;2.47;;
12224;SDS011;6175;50.956;11.064;2023-06-01T04:01:22;3.17;;;2.20;;
12224;SDS011;6175;50.956;11.064;2023-06-01T04:03:54;2.50;;;2.30;;
12224;SDS011;6175;50.956;11.064;2023-06-01T04:06:23;3.20;;;2.65;;
12224;SDS011;6175;50.956;11.064;2023-06-01T04:08:50;3.92;;;2.53;;
12224;SDS011;6175;50.956;11.064;2023-06-01T04:11:20;2.60;;;2.28;;
12224;SDS011;6175;50.956;11.064;2023-06-01T04:13:48;3.65;;;2.60;;
12224;SDS011;6175;50.956;11.064;2023-06-01T04:16:15;3.00;;;2.70;;
12224;SDS011;6175;50.956;11.064;2023-06-01T04:18:43;2.70;;;2.28;;
12224;SDS011;6175;50.956;11.064;2023-06-01T04:21:10;3.20;;;2.53;;
12224;SDS011;6175;50.956;11.064;2023-06-01T04:23:38;3.42;;;2.38;;
12224;SDS011;6175;50.956;11.064;2023-06-01T04:26:07;2.80;;;2.00;;
12224;SDS011;6175;50.956;11.064;2023-06-01T04:28:35;3.10;;;2.50;;
12224;SDS011;6175;50.956;11.064;2023-06-01T04:31:08;2.33;;;2.10;;
12224;SDS011;6175;50.956;11.064;2023-06-01T04:33:42;2.92;;;2.28;;
12224;SDS011;6175;50.956;11.064;2023-06-01T04:36:11;4.65;;;2.50;;
12224;SDS011;6175;50.956;11.064;2023-06-01T04:38:40;3.08;;;2.42;;
12224;SDS011;6175;50.956;11.064;2023-06-01T04:41:08;3.05;;;2.20;;
12224;SDS011;6175;50.956;11.064;2023-06-01T04:43:36;2.63;;;2.10;;
12224;SDS011;6175;50.956;11.064;2023-06-01T04:46:03;2.25;;;2.05;;
12224;SDS011;6175;50.956;11.064;2023-06-01T04:48:31;4.13;;;2.50;;
12224;SDS011;6175;50.956;11.064;2023-06-01T04:50:58;4.15;;;2.63;;
12224;SDS011;6175;50.956;11.064;2023-06-01T04:53:25;2.40;;;2.20;;
12224;SDS011;6175;50.956;11.064;2023-06-01T04:55:53;4.45;;;2.75;;
12224;SDS011;6175;50.956;11.064;2023-06-01T04:58:21;3.80;;;2.42;;
12224;SDS011;6175;50.956;11.064;2023-06-01T05:00:48;3.50;;;2.70;;
12224;SDS011;6175;50.956;11.064;2023-06-01T05:03:15;4.47;;;2.78;;
12224;SDS011;6175;50.956;11.064;2023-06-01T05:05:43;3.67;;;2.47;;
12224;SDS011;6175;50.956;11.064;2023-06-01T05:08:10;5.70;;;3.22;;
12224;SDS011;6175;50.956;11.064;2023-06-01T05:10:37;3.90;;;2.60;;
12224;SDS011;6175;50.956;11.064;2023-06-01T05:13:06;4.95;;;2.72;;
12224;SDS011;6175;50.956;11.064;2023-06-01T05:15:33;3.45;;;2.42;;
12224;SDS011;6175;50.956;11.064;2023-06-01T05:18:00;4.45;;;2.92;;
12224;SDS011;6175;50.956;11.064;2023-06-01T05:20:27;2.60;;;2.35;;
12224;SDS011;6175;50.956;11.064;2023-06-01T05:22:54;2.40;;;2.20;;
12224;SDS011;6175;50.956;11.064;2023-06-01T05:25:22;2.42;;;2.13;;
12224;SDS011;6175;50.956;11.064;2023-06-01T05:27:49;2.90;;;2.22;;
12224;SDS011;6175;50.956;11.064;2023-06-01T05:30:17;2.97;;;2.13;;
12224;SDS011;6175;50.956;11.064;2023-06-01T05:32:45;4.10;;;2.58;;
12224;SDS011;6175;50.956;11.064;2023-06-01T05:35:12;3.25;;;2.70;;
12224;SDS011;6175;50.956;11.064;2023-06-01T05:37:39;3.15;;;2.58;;
12224;SDS011;6175;50.956;11.064;2023-06-01T05:40:07;2.60;;;2.40;;
12224;SDS011;6175;50.956;11.064;2023-06-01T05:42:35;3.33;;;2.75;;
12224;SDS011;6175;50.956;11.064;2023-06-01T05:45:02;2.65;;;2.17;;
12224;SDS011;6175;50.956;11.064;2023-06-01T05:47:31;2.60;;;2.40;;
12224;SDS011;6175;50.956;11.064;2023-06-01T05:49:58;2.30;;;2.10;;
12224;SDS011;6175;50.956;11.064;2023-06-01T05:52:25;5.10;;;2.55;;
12224;SDS011;6175;50.956;11.064;2023-06-01T05:54:52;5.57;;;2.55;;
12224;SDS011;6175;50.956;11.064;2023-06-01T05:57:20;3.38;;;2.33;;
12224;SDS011;6175;50.956;11.064;2023-06-01T05:59:47;2.67;;;2.10;;
12224;SDS011;6175;50.956;11.064;2023-06-01T06:02:14;4.60;;;2.70;;
12224;SDS011;6175;50.956;11.064;2023-06-01T06:04:43;2.67;;;2.47;;
12224;SDS011;6175;50.956;11.064;2023-06-01T06:07:10;3.65;;;2.17;;
12224;SDS011;6175;50.956;11.064;2023-06-01T06:09:37;3.97;;;2.40;;
12224;SDS011;6175;50.956;11.064;2023-06-01T06:12:05;7.78;;;2.85;;
12224;SDS011;6175;50.956;11.064;2023-06-01T06:14:33;3.35;;;2.30;;
12224;SDS011;6175;50.956;11.064;2023-06-01T06:17:00;4.93;;;2.88;;
12224;SDS011;6175;50.956;11.064;2023-06-01T06:19:27;3.05;;;2.22;;
12224;SDS011;6175;50.956;11.064;2023-06-01T06:21:56;2.47;;;2.28;;
12224;SDS011;6175;50.956;11.064;2023-06-01T06:24:23;3.40;;;2.00;;
12224;SDS011;6175;50.956;11.064;2023-06-01T06:26:50;4.80;;;2.25;;
12224;SDS011;6175;50.956;11.064;2023-06-01T06:29:18;5.15;;;2.22;;
12224;SDS011;6175;50.956;11.064;2023-06-01T06:31:45;3.92;;;1.90;;
12224;SDS011;6175;50.956;11.064;2023-06-01T06:34:14;4.55;;;2.50;;
12224;SDS011;6175;50.956;11.064;2023-06-01T06:36:41;2.72;;;2.28;;
12224;SDS011;6175;50.956;11.064;2023-06-01T06:39:09;3.20;;;2.38;;
12224;SDS011;6175;50.956;11.064;2023-06-01T06:41:37;4.20;;;2.33;;
12224;SDS011;6175;50.956;11.064;2023-06-01T06:44:04;2.83;;;2.10;;
12224;SDS011;6175;50.956;11.064;2023-06-01T06:46:32;4.03;;;2.60;;
12224;SDS011;6175;50.956;11.064;2023-06-01T06:48:59;3.92;;;2.10;;
12224;SDS011;6175;50.956;11.064;2023-06-01T06:51:26;3.53;;;2.10;;
12224;SDS011;6175;50.956;11.064;2023-06-01T06:53:53;4.53;;;2.05;;
12224;SDS011;6175;50.956;11.064;2023-06-01T06:56:22;4.95;;;2.25;;
12224;SDS011;6175;50.956;11.064;2023-06-01T06:58:48;2.63;;;2.10;;
12224;SDS011;6175;50.956;11.064;2023-06-01T07:01:16;3.67;;;2.00;;
12224;SDS011;6175;50.956;11.064;2023-06-01T07:03:43;3.95;;;2.28;;
12224;SDS011;6175;50.956;11.064;2023-06-01T07:06:10;4.22;;;2.40;;
12224;SDS011;6175;50.956;11.064;2023-06-01T07:08:37;2.33;;;1.90;;
12224;SDS011;6175;50.956;11.064;2023-06-01T07:11:05;2.70;;;2.30;;
12224;SDS011;6175;50.956;11.064;2023-06-01T07:13:33;4.15;;;2.22;;
12224;SDS011;6175;50.956;11.064;2023-06-01T07:16:00;5.57;;;2.40;;
12224;SDS011;6175;50.956;11.064;2023-06-01T07:18:28;4.22;;;2.25;;
12224;SDS011;6175;50.956;11.064;2023-06-01T07:20:56;3.20;;;2.35;;
12224;SDS011;6175;50.956;11.064;2023-06-01T07:23:23;3.00;;;2.03;;
12224;SDS011;6175;50.956;11.064;2023-06-01T07:25:51;3.78;;;2.00;;
12224;SDS011;6175;50.956;11.064;2023-06-01T07:28:18;3.85;;;2.30;;
12224;SDS011;6175;50.956;11.064;2023-06-01T07:30:51;3.15;;;2.10;;
12224;SDS011;6175;50.956;11.064;2023-06-01T07:33:18;3.33;;;2.17;;
12224;SDS011;6175;50.956;11.064;2023-06-01T07:35:46;3.13;;;1.85;;
12224;SDS011;6175;50.956;11.064;2023-06-01T07:38:13;4.85;;;2.45;;
12224;SDS011;6175;50.956;11.064;2023-06-01T07:40:40;3.33;;;2.05;;
12224;SDS011;6175;50.956;11.064;2023-06-01T07:43:08;2.42;;;1.95;;
12224;SDS011;6175;50.956;11.064;2023-06-01T07:45:35;4.25;;;2.53;;
12224;SDS011;6175;50.956;11.064;2023-06-01T07:48:04;2.50;;;1.88;;
12224;SDS011;6175;50.956;11.064;2023-06-01T07:50:31;2.60;;;1.98;;
12224;SDS011;6175;50.956;11.064;2023-06-01T07:52:58;2.60;;;2.00;;
12224;SDS011;6175;50.956;11.064;2023-06-01T07:55:26;4.55;;;2.22;;
12224;SDS011;6175;50.956;11.064;2023-06-01T07:57:53;4.57;;;2.08;;
12224;SDS011;6175;50.956;11.064;2023-06-01T08:00:20;2.88;;;2.10;;
12224;SDS011;6175;50.956;11.064;2023-06-01T08:02:48;2.92;;;1.90;;
12224;SDS011;6175;50.956;11.064;2023-06-01T08:05:16;2.22;;;1.75;;
12224;SDS011;6175;50.956;11.064;2023-06-01T08:07:44;2.70;;;2.10;;
12224;SDS011;6175;50.956;11.064;2023-06-01T08:10:12;4.95;;;1.90;;
12224;SDS011;6175;50.956;11.064;2023-06-01T08:12:39;4.03;;;2.22;;
12224;SDS011;6175;50.956;11.064;2023-06-01T08:15:08;5.13;;;2.03;;
12224;SDS011;6175;50.956;11.064;2023-06-01T08:17:36;2.47;;;1.70;;
12224;SDS011;6175;50.956;11.064;2023-06-01T08:20:03;3.85;;;2.00;;
12224;SDS011;6175;50.956;11.064;2023-06-01T08:22:37;3.53;;;1.98;;
12224;SDS011;6175;50.956;11.064;2023-06-01T08:25:05;2.67;;;1.83;;
12224;SDS011;6175;50.956;11.064;2023-06-01T08:27:32;2.42;;;1.90;;
12224;SDS011;6175;50.956;11.064;2023-06-01T08:30:00;5.35;;;1.83;;
12224;SDS011;6175;50.956;11.064;2023-06-01T08:32:28;5.10;;;2.25;;
12224;SDS011;6175;50.956;11.064;2023-06-01T08:34:56;3.90;;;2.45;;
12224;SDS011;6175;50.956;11.064;2023-06-01T08:37:23;3.88;;;2.20;;
12224;SDS011;6175;50.956;11.064;2023-06-01T08:39:51;2.05;;;1.85;;
12224;SDS011;6175;50.956;11.064;2023-06-01T08:42:20;3.08;;;2.20;;
12224;SDS011;6175;50.956;11.064;2023-06-01T08:44:52;3.85;;;2.40;;
12224;SDS011;6175;50.956;11.064;2023-06-01T08:47:20;3.47;;;1.98;;
12224;SDS011;6175;50.956;11.064;2023-06-01T08:49:49;3.88;;;1.85;;
12224;SDS011;6175;50.956;11.064;2023-06-01T08:52:18;3.13;;;2.05;;
12224;SDS011;6175;50.956;11.064;2023-06-01T08:54:46;4.03;;;2.53;;
12224;SDS011;6175;50.956;11.064;2023-06-01T08:57:15;3.03;;;2.20;;
12224;SDS011;6175;50.956;11.064;2023-06-01T08:59:43;4.85;;;2.20;;
12224;SDS011;6175;50.956;11.064;2023-06-01T09:02:13;3.42;;;2.30;;
12224;SDS011;6175;50.956;11.064;2023-06-01T09:04:40;3.20;;;2.28;;
12224;SDS011;6175;50.956;11.064;2023-06-01T09:07:09;10.02;;;5.35;;
12224;SDS011;6175;50.956;11.064;2023-06-01T09:09:37;5.72;;;2.67;;
12224;SDS011;6175;50.956;11.064;2023-06-01T09:12:21;4.45;;;2.40;;
12224;SDS011;6175;50.956;11.064;2023-06-01T09:14:50;3.17;;;2.30;;
12224;SDS011;6175;50.956;11.064;2023-06-01T09:17:20;5.10;;;2.38;;
12224;SDS011;6175;50.956;11.064;2023-06-01T09:19:50;3.88;;;2.30;;
12224;SDS011;6175;50.956;11.064;2023-06-01T09:22:17;6.50;;;3.88;;
12224;SDS011;6175;50.956;11.064;2023-06-01T09:24:54;5.10;;;3.53;;
12224;SDS011;6175;50.956;11.064;2023-06-01T09:27:24;4.32;;;2.17;;
12224;SDS011;6175;50.956;11.064;2023-06-01T09:29:55;5.18;;;2.70;;
12224;SDS011;6175;50.956;11.064;2023-06-01T09:32:24;4.78;;;2.90;;
12224;SDS011;6175;50.956;11.064;2023-06-01T09:34:51;5.18;;;2.10;;
12224;SDS011;6175;50.956;11.064;2023-06-01T09:37:19;4.78;;;2.00;;
12224;SDS011;6175;50.956;11.064;2023-06-01T09:39:46;3.90;;;2.25;;
12224;SDS011;6175;50.956;11.064;2023-06-01T09:42:13;3.55;;;2.20;;
12224;SDS011;6175;50.956;11.064;2023-06-01T09:44:42;4.57;;;1.85;;
12224;SDS011;6175;50.956;11.064;2023-06-01T09:47:10;3.10;;;2.05;;
12224;SDS011;6175;50.956;11.064;2023-06-01T09:49:38;3.45;;;1.95;;
12224;SDS011;6175;50.956;11.064;2023-06-01T09:52:09;2.40;;;1.80;;
12224;SDS011;6175;50.956;11.064;2023-06-01T09:54:40;2.45;;;2.00;;
12224;SDS011;6175;50.956;11.064;2023-06-01T09:57:08;3.20;;;2.17;;
12224;SDS011;6175;50.956;11.064;2023-06-01T09:59:39;6.35;;;2.13;;
12224;SDS011;6175;50.956;11.064;2023-06-01T10:02:11;3.45;;;2.00;;
12224;SDS011;6175;50.956;11.064;2023-06-01T10:04:40;2.90;;;2.38;;
12224;SDS011;6175;50.956;11.064;2023-06-01T10:07:08;3.97;;;2.50;;
12224;SDS011;6175;50.956;11.064;2023-06-01T10:09:36;4.93;;;2.47;;
12224;SDS011;6175;50.956;11.064;2023-06-01T10:12:05;4.85;;;2.40;;
12224;SDS011;6175;50.956;11.064;2023-06-01T10:14:32;2.70;;;2.28;;
12224;SDS011;6175;50.956;11.064;2023-06-01T10:17:00;3.40;;;2.38;;
12224;SDS011;6175;50.956;11.064;2023-06-01T10:19:28;2.67;;;2.42;;
12224;SDS011;6175;50.956;11.064;2023-06-01T10:21:56;2.83;;;2.40;;
12224;SDS011;6175;50.956;11.064;2023-06-01T10:24:23;4.80;;;2.97;;
12224;SDS011;6175;50.956;11.064;2023-06-01T10:26:53;3.72;;;2.80;;
12224;SDS011;6175;50.956;11.064;2023-06-01T10:29:28;3.72;;;2.85;;
12224;SDS011;6175;50.956;11.064;2023-06-01T10:31:56;3.88;;;2.70;;
12224;SDS011;6175;50.956;11.064;2023-06-01T10:37:13;5.47;;;2.75;;
12224;SDS011;6175;50.956;11.064;2023-06-01T10:39:42;3.85;;;2.85;;
12224;SDS011;6175;50.956;11.064;2023-06-01T10:45:01;4.60;;;2.78;;
12224;SDS011;6175;50.956;11.064;2023-06-01T10:47:44;4.05;;;2.22;;
12224;SDS011;6175;50.956;11.064;2023-06-01T10:50:18;2.97;;;2.50;;
12224;SDS011;6175;50.956;11.064;2023-06-01T10:52:45;2.65;;;2.33;;
12224;SDS011;6175;50.956;11.064;2023-06-01T10:55:20;2.92;;;2.50;;
12224;SDS011;6175;50.956;11.064;2023-06-01T10:57:51;3.30;;;2.65;;
12224;SDS011;6175;50.956;11.064;2023-06-01T11:00:19;3.22;;;2.90;;
12224;SDS011;6175;50.956;11.064;2023-06-01T11:02:54;3.63;;;2.78;;
12224;SDS011;6175;50.956;11.064;2023-06-01T11:05:42;3.25;;;2.90;;
12224;SDS011;6175;50.956;11.064;2023-06-01T11:11:16;3.28;;;2.90;;
12224;SDS011;6175;50.956;11.064;2023-06-01T11:13:46;3.55;;;2.90;;
12224;SDS011;6175;50.956;11.064;2023-06-01T11:16:33;3.40;;;3.05;;
12224;SDS011;6175;50.956;11.064;2023-06-01T11:19:01;2.97;;;2.67;;
12224;SDS011;6175;50.956;11.064;2023-06-01T11:21:32;3.05;;;2.58;;
12224;SDS011;6175;50.956;11.064;2023-06-01T11:24:03;3.97;;;2.92;;
12224;SDS011;6175;50.956;11.064;2023-06-01T11:26:32;3.85;;;3.08;;
12224;SDS011;6175;50.956;11.064;2023-06-01T11:29:08;4.47;;;3.10;;
12224;SDS011;6175;50.956;11.064;2023-06-01T11:31:38;4.78;;;3.40;;
12224;SDS011;6175;50.956;11.064;2023-06-01T11:34:06;3.85;;;3.17;;
12224;SDS011;6175;50.956;11.064;2023-06-01T11:36:45;7.22;;;3.95;;
12224;SDS011;6175;50.956;11.064;2023-06-01T11:39:17;4.10;;;3.70;;
12224;SDS011;6175;50.956;11.064;2023-06-01T11:41:46;5.20;;;4.65;;
12224;SDS011;6175;50.956;11.064;2023-06-01T11:44:13;5.03;;;4.53;;
12224;SDS011;6175;50.956;11.064;2023-06-01T11:46:53;6.00;;;5.40;;
12224;SDS011;6175;50.956;11.064;2023-06-01T11:49:21;6.43;;;5.80;;
12224;SDS011;6175;50.956;11.064;2023-06-01T11:51:49;5.95;;;5.40;;
12224;SDS011;6175;50.956;11.064;2023-06-01T11:54:21;6.03;;;5.45;;
12224;SDS011;6175;50.956;11.064;2023-06-01T11:56:49;7.20;;;5.88;;
12224;SDS011;6175;50.956;11.064;2023-06-01T11:59:16;5.85;;;5.32;;
12224;SDS011;6175;50.956;11.064;2023-06-01T12:01:45;5.68;;;5.07;;
12224;SDS011;6175;50.956;11.064;2023-06-01T12:04:13;7.30;;;5.85;;
12224;SDS011;6175;50.956;11.064;2023-06-01T12:06:40;5.63;;;5.10;;
12224;SDS011;6175;50.956;11.064;2023-06-01T12:09:09;5.35;;;4.85;;
12224;SDS011;6175;50.956;11.064;2023-06-01T12:11:37;5.32;;;4.82;;
12224;SDS011;6175;50.956;11.064;2023-06-01T12:14:04;5.93;;;5.32;;
12224;SDS011;6175;50.956;11.064;2023-06-01T12:19:18;6.05;;;5.30;;
12224;SDS011;6175;50.956;11.064;2023-06-01T12:21:46;6.22;;;5.63;;
12224;SDS011;6175;50.956;11.064;2023-06-01T12:24:15;5.72;;;5.20;;
12224;SDS011;6175;50.956;11.064;2023-06-01T12:26:42;6.50;;;4.97;;
12224;SDS011;6175;50.956;11.064;2023-06-01T12:29:10;5.88;;;5.05;;
12224;SDS011;6175;50.956;11.064;2023-06-01T12:31:37;5.57;;;5.07;;
12224;SDS011;6175;50.956;11.064;2023-06-01T12:34:14;6.10;;;5.35;;
12224;SDS011;6175;50.956;11.064;2023-06-01T12:36:42;5.32;;;4.85;;
12224;SDS011;6175;50.956;11.064;2023-06-01T12:39:09;6.25;;;4.47;;
12224;SDS011;6175;50.956;11.064;2023-06-01T12:41:47;5.30;;;4.80;;
12224;SDS011;6175;50.956;11.064;2023-06-01T12:44:18;5.80;;;5.20;;
12224;SDS011;6175;50.956;11.064;2023-06-01T12:46:46;4.70;;;4.20;;
12224;SDS011;6175;50.956;11.064;2023-06-01T12:49:13;4.82;;;4.15;;
12224;SDS011;6175;50.956;11.064;2023-06-01T12:51:42;4.32;;;3.92;;
12224;SDS011;6175;50.956;11.064;2023-06-01T12:54:09;4.72;;;4.32;;
12224;SDS011;6175;50.956;11.064;2023-06-01T12:56:36;4.57;;;3.97;;
12224;SDS011;6175;50.956;11.064;2023-06-01T12:59:05;4.63;;;4.15;;
12224;SDS011;6175;50.956;11.064;2023-06-01T13:01:32;4.45;;;4.03;;
12224;SDS011;6175;50.956;11.064;2023-06-01T13:04:00;4.05;;;3.70;;
12224;SDS011;6175;50.956;11.064;2023-06-01T13:06:28;4.22;;;3.83;;
12224;SDS011;6175;50.956;11.064;2023-06-01T13:08:55;3.75;;;3.45;;
12224;SDS011;6175;50.956;11.064;2023-06-01T13:11:22;5.38;;;3.85;;
12224;SDS011;6175;50.956;11.064;2023-06-01T13:13:50;5.13;;;3.78;;
12224;SDS011;6175;50.956;11.064;2023-06-01T13:16:18;6.78;;;4.60;;
12224;SDS011;6175;50.956;11.064;2023-06-01T13:18:45;4.55;;;4.15;;
12224;SDS011;6175;50.956;11.064;2023-06-01T13:21:15;4.85;;;4.15;;
12224;SDS011;6175;50.956;11.064;2023-06-01T13:23:42;4.88;;;4.47;;
12224;SDS011;6175;50.956;11.064;2023-06-01T13:26:10;5.68;;;4.93;;
12224;SDS011;6175;50.956;11.064;2023-06-01T13:28:39;5.50;;;4.97;;
12224;SDS011;6175;50.956;11.064;2023-06-01T13:31:06;5.28;;;4.40;;
12224;SDS011;6175;50.956;11.064;2023-06-01T13:33:35;12.40;;;5.05;;
12224;SDS011;6175;50.956;11.064;2023-06-01T13:36:02;5.05;;;4.55;;
12224;SDS011;6175;50.956;11.064;2023-06-01T13:38:30;5.22;;;4.63;;
12224;SDS011;6175;50.956;11.064;2023-06-01T13:40:57;5.03;;;4.53;;
12224;SDS011;6175;50.956;11.064;2023-06-01T13:43:24;5.22;;;4.28;;
12224;SDS011;6175;50.956;11.064;2023-06-01T13:45:52;4.82;;;4.43;;
12224;SDS011;6175;50.956;11.064;2023-06-01T13:48:19;4.80;;;4.07;;
12224;SDS011;6175;50.956;11.064;2023-06-01T13:50:47;4.63;;;4.20;;
12224;SDS011;6175;50.956;11.064;2023-06-01T13:53:15;3.72;;;3.00;;
12224;SDS011;6175;50.956;11.064;2023-06-01T13:55:42;4.20;;;3.80;;
12224;SDS011;6175;50.956;11.064;2023-06-01T13:58:09;4.38;;;3.72;;
12224;SDS011;6175;50.956;11.064;2023-06-01T14:00:36;4.60;;;4.20;;
12224;SDS011;6175;50.956;11.064;2023-06-01T14:03:03;5.47;;;4.07;;
12224;SDS011;6175;50.956;11.064;2023-06-01T14:05:30;4.40;;;4.00;;
12224;SDS011;6175;50.956;11.064;2023-06-01T14:07:58;4.68;;;4.13;;
12224;SDS011;6175;50.956;11.064;2023-06-01T14:10:27;4.40;;;4.00;;
12224;SDS011;6175;50.956;11.064;2023-06-01T14:12:54;5.35;;;4.30;;
12224;SDS011;6175;50.956;11.064;2023-06-01T14:15:21;4.57;;;4.07;;
12224;SDS011;6175;50.956;11.064;2023-06-01T14:17:48;4.20;;;3.80;;
12224;SDS011;6175;50.956;11.064;2023-06-01T14:20:15;4.05;;;3.63;;
12224;SDS011;6175;50.956;11.064;2023-06-01T14:22:43;5.47;;;4.30;;
12224;SDS011;6175;50.956;11.064;2023-06-01T14:25:12;4.38;;;3.97;;
12224;SDS011;6175;50.956;11.064;2023-06-01T14:27:39;4.38;;;3.97;;
12224;SDS011;6175;50.956;11.064;2023-06-01T14:30:06;4.63;;;3.58;;
12224;SDS011;6175;50.956;11.064;2023-06-01T14:32:33;3.80;;;3.50;;
12224;SDS011;6175;50.956;11.064;2023-06-01T14:35:00;4.10;;;3.17;;
12224;SDS011;6175;50.956;11.064;2023-06-01T14:37:27;3.88;;;3.53;;
12224;SDS011;6175;50.956;11.064;2023-06-01T14:39:56;3.30;;;2.95;;
12224;SDS011;6175;50.956;11.064;2023-06-01T14:42:24;3.15;;;2.95;;
12224;SDS011;6175;50.956;11.064;2023-06-01T14:44:51;3.40;;;3.10;;
12224;SDS011;6175;50.956;11.064;2023-06-01T14:47:18;3.15;;;2.90;;
12224;SDS011;6175;50.956;11.064;2023-06-01T14:49:45;3.40;;;3.10;;
12224;SDS011;6175;50.956;11.064;2023-06-01T14:52:12;5.10;;;2.75;;
12224;SDS011;6175;50.956;11.064;2023-06-01T14:54:39;3.78;;;2.70;;
12224;SDS011;6175;50.956;11.064;2023-06-01T14:57:06;3.42;;;3.13;;
12224;SDS011;6175;50.956;11.064;2023-06-01T14:59:35;3.90;;;2.92;;
12224;SDS011;6175;50.956;11.064;2023-06-01T15:02:02;3.63;;;2.83;;
12224;SDS011;6175;50.956;11.064;2023-06-01T15:04:31;2.78;;;2.53;;
12224;SDS011;6175;50.956;11.064;2023-06-01T15:06:58;4.32;;;2.90;;
12224;SDS011;6175;50.956;11.064;2023-06-01T15:09:25;3.20;;;2.90;;